METAR Data
IDs: Format: Raw Decoded Include TAF

Data at: 0237 UTC 25 Feb 2021

LOWG 250220Z AUTO 28002KT 9999 4700W BR NCD 02/01 Q1033